sensor_id;sensor_type;location;lat;lon;timestamp;P1;durP1;ratioP1;P2;durP2;ratioP2
31043;SDS011;17710;52.520;13.352;2023-04-06T00:01:13;7.93;;;3.78;;
31043;SDS011;17710;52.520;13.352;2023-04-06T00:03:40;9.70;;;4.63;;
31043;SDS011;17710;52.520;13.352;2023-04-06T00:06:06;5.95;;;3.53;;
31043;SDS011;17710;52.520;13.352;2023-04-06T00:08:32;8.40;;;3.72;;
31043;SDS011;17710;52.520;13.352;2023-04-06T00:10:59;6.63;;;3.78;;
31043;SDS011;17710;52.520;13.352;2023-04-06T00:13:25;6.00;;;3.83;;
31043;SDS011;17710;52.520;13.352;2023-04-06T00:15:53;8.10;;;3.70;;
31043;SDS011;17710;52.520;13.352;2023-04-06T00:18:20;8.00;;;3.90;;
31043;SDS011;17710;52.520;13.352;2023-04-06T00:20:46;7.10;;;3.85;;
31043;SDS011;17710;52.520;13.352;2023-04-06T00:23:12;7.65;;;3.53;;
31043;SDS011;17710;52.520;13.352;2023-04-06T00:25:39;6.50;;;3.72;;
31043;SDS011;17710;52.520;13.352;2023-04-06T00:28:05;6.75;;;3.53;;
31043;SDS011;17710;52.520;13.352;2023-04-06T00:30:31;4.00;;;3.40;;
31043;SDS011;17710;52.520;13.352;2023-04-06T00:32:59;7.18;;;3.25;;
31043;SDS011;17710;52.520;13.352;2023-04-06T00:35:25;6.10;;;3.47;;
31043;SDS011;17710;52.520;13.352;2023-04-06T00:37:52;5.93;;;3.75;;
31043;SDS011;17710;52.520;13.352;2023-04-06T00:40:19;11.20;;;4.40;;
31043;SDS011;17710;52.520;13.352;2023-04-06T00:42:45;9.57;;;3.63;;
31043;SDS011;17710;52.520;13.352;2023-04-06T00:45:12;8.00;;;3.15;;
31043;SDS011;17710;52.520;13.352;2023-04-06T00:47:38;5.70;;;3.28;;
31043;SDS011;17710;52.520;13.352;2023-04-06T00:50:07;7.03;;;3.75;;
31043;SDS011;17710;52.520;13.352;2023-04-06T00:52:34;5.03;;;3.53;;
31043;SDS011;17710;52.520;13.352;2023-04-06T00:55:00;10.13;;;4.47;;
31043;SDS011;17710;52.520;13.352;2023-04-06T00:57:27;10.85;;;3.50;;
31043;SDS011;17710;52.520;13.352;2023-04-06T00:59:53;7.55;;;3.42;;
31043;SDS011;17710;52.520;13.352;2023-04-06T01:02:20;10.30;;;4.20;;
31043;SDS011;17710;52.520;13.352;2023-04-06T01:04:46;7.00;;;3.75;;
31043;SDS011;17710;52.520;13.352;2023-04-06T01:07:14;6.03;;;3.50;;
31043;SDS011;17710;52.520;13.352;2023-04-06T01:09:40;12.43;;;3.67;;
31043;SDS011;17710;52.520;13.352;2023-04-06T01:12:07;7.75;;;3.53;;
31043;SDS011;17710;52.520;13.352;2023-04-06T01:14:33;6.80;;;3.30;;
31043;SDS011;17710;52.520;13.352;2023-04-06T01:16:59;9.52;;;3.83;;
31043;SDS011;17710;52.520;13.352;2023-04-06T01:19:26;6.28;;;3.75;;
31043;SDS011;17710;52.520;13.352;2023-04-06T01:21:54;7.13;;;3.22;;
31043;SDS011;17710;52.520;13.352;2023-04-06T01:24:22;4.85;;;3.00;;
31043;SDS011;17710;52.520;13.352;2023-04-06T01:26:48;7.07;;;3.70;;
31043;SDS011;17710;52.520;13.352;2023-04-06T01:29:15;5.35;;;3.95;;
31043;SDS011;17710;52.520;13.352;2023-04-06T01:31:41;9.85;;;3.33;;
31043;SDS011;17710;52.520;13.352;2023-04-06T01:34:08;6.80;;;3.65;;
31043;SDS011;17710;52.520;13.352;2023-04-06T01:36:34;6.60;;;3.65;;
31043;SDS011;17710;52.520;13.352;2023-04-06T01:39:00;7.70;;;3.67;;
31043;SDS011;17710;52.520;13.352;2023-04-06T01:41:28;7.97;;;3.80;;
31043;SDS011;17710;52.520;13.352;2023-04-06T01:43:54;5.00;;;3.35;;
31043;SDS011;17710;52.520;13.352;2023-04-06T01:46:21;5.95;;;3.35;;
31043;SDS011;17710;52.520;13.352;2023-04-06T01:48:47;7.65;;;3.63;;
31043;SDS011;17710;52.520;13.352;2023-04-06T01:51:13;12.27;;;3.95;;
31043;SDS011;17710;52.520;13.352;2023-04-06T01:53:40;7.93;;;3.70;;
31043;SDS011;17710;52.520;13.352;2023-04-06T01:56:06;6.40;;;3.55;;
31043;SDS011;17710;52.520;13.352;2023-04-06T01:58:34;9.57;;;3.92;;
31043;SDS011;17710;52.520;13.352;2023-04-06T02:01:00;11.15;;;4.05;;
31043;SDS011;17710;52.520;13.352;2023-04-06T02:03:27;8.48;;;3.63;;
31043;SDS011;17710;52.520;13.352;2023-04-06T02:05:53;7.18;;;3.78;;
31043;SDS011;17710;52.520;13.352;2023-04-06T02:08:20;8.85;;;3.90;;
31043;SDS011;17710;52.520;13.352;2023-04-06T02:10:46;7.07;;;4.13;;
31043;SDS011;17710;52.520;13.352;2023-04-06T02:13:13;10.52;;;4.05;;
31043;SDS011;17710;52.520;13.352;2023-04-06T02:15:40;8.48;;;3.55;;
31043;SDS011;17710;52.520;13.352;2023-04-06T02:18:07;10.02;;;4.68;;
31043;SDS011;17710;52.520;13.352;2023-04-06T02:20:34;7.38;;;3.20;;
31043;SDS011;17710;52.520;13.352;2023-04-06T02:23:00;7.72;;;3.75;;
31043;SDS011;17710;52.520;13.352;2023-04-06T02:25:27;7.43;;;3.70;;
31043;SDS011;17710;52.520;13.352;2023-04-06T02:27:53;9.90;;;4.38;;
31043;SDS011;17710;52.520;13.352;2023-04-06T02:30:20;9.20;;;3.88;;
31043;SDS011;17710;52.520;13.352;2023-04-06T02:32:48;9.32;;;3.97;;
31043;SDS011;17710;52.520;13.352;2023-04-06T02:35:14;7.30;;;4.63;;
31043;SDS011;17710;52.520;13.352;2023-04-06T02:37:41;9.32;;;4.13;;
31043;SDS011;17710;52.520;13.352;2023-04-06T02:40:07;8.55;;;3.90;;
31043;SDS011;17710;52.520;13.352;2023-04-06T02:42:35;11.30;;;4.38;;
31043;SDS011;17710;52.520;13.352;2023-04-06T02:45:01;9.50;;;4.15;;
31043;SDS011;17710;52.520;13.352;2023-04-06T02:47:27;8.65;;;3.78;;
31043;SDS011;17710;52.520;13.352;2023-04-06T02:49:55;9.82;;;3.83;;
31043;SDS011;17710;52.520;13.352;2023-04-06T02:52:21;8.27;;;4.13;;
31043;SDS011;17710;52.520;13.352;2023-04-06T02:54:48;7.55;;;4.30;;
31043;SDS011;17710;52.520;13.352;2023-04-06T02:57:16;9.40;;;4.10;;
31043;SDS011;17710;52.520;13.352;2023-04-06T02:59:42;9.63;;;3.63;;
31043;SDS011;17710;52.520;13.352;2023-04-06T03:02:08;7.90;;;4.50;;
31043;SDS011;17710;52.520;13.352;2023-04-06T03:04:35;7.45;;;4.07;;
31043;SDS011;17710;52.520;13.352;2023-04-06T03:07:02;10.00;;;4.43;;
31043;SDS011;17710;52.520;13.352;2023-04-06T03:09:29;8.02;;;4.00;;
31043;SDS011;17710;52.520;13.352;2023-04-06T03:11:55;8.48;;;4.20;;
31043;SDS011;17710;52.520;13.352;2023-04-06T03:14:22;7.82;;;4.38;;
31043;SDS011;17710;52.520;13.352;2023-04-06T03:16:48;9.13;;;4.35;;
31043;SDS011;17710;52.520;13.352;2023-04-06T03:19:15;10.27;;;4.35;;
31043;SDS011;17710;52.520;13.352;2023-04-06T03:21:41;8.95;;;4.38;;
31043;SDS011;17710;52.520;13.352;2023-04-06T03:24:09;8.50;;;4.30;;
31043;SDS011;17710;52.520;13.352;2023-04-06T03:26:35;8.20;;;4.25;;
31043;SDS011;17710;52.520;13.352;2023-04-06T03:29:02;8.55;;;4.30;;
31043;SDS011;17710;52.520;13.352;2023-04-06T03:31:28;6.90;;;4.10;;
31043;SDS011;17710;52.520;13.352;2023-04-06T03:33:55;7.90;;;4.22;;
31043;SDS011;17710;52.520;13.352;2023-04-06T03:36:21;8.85;;;4.43;;
31043;SDS011;17710;52.520;13.352;2023-04-06T03:38:48;7.45;;;4.38;;
31043;SDS011;17710;52.520;13.352;2023-04-06T03:41:16;9.48;;;4.93;;
31043;SDS011;17710;52.520;13.352;2023-04-06T03:43:42;9.10;;;4.68;;
31043;SDS011;17710;52.520;13.352;2023-04-06T03:46:09;12.60;;;4.75;;
31043;SDS011;17710;52.520;13.352;2023-04-06T03:48:36;10.73;;;4.85;;
31043;SDS011;17710;52.520;13.352;2023-04-06T03:51:02;14.27;;;5.07;;
31043;SDS011;17710;52.520;13.352;2023-04-06T03:53:29;13.75;;;5.18;;
31043;SDS011;17710;52.520;13.352;2023-04-06T03:55:55;8.38;;;4.82;;
31043;SDS011;17710;52.520;13.352;2023-04-06T03:58:23;8.13;;;5.18;;
31043;SDS011;17710;52.520;13.352;2023-04-06T04:00:49;9.55;;;4.90;;
31043;SDS011;17710;52.520;13.352;2023-04-06T04:03:15;10.18;;;4.93;;
31043;SDS011;17710;52.520;13.352;2023-04-06T04:05:42;10.82;;;5.15;;
31043;SDS011;17710;52.520;13.352;2023-04-06T04:08:09;10.07;;;5.03;;
31043;SDS011;17710;52.520;13.352;2023-04-06T04:10:35;13.50;;;5.22;;
31043;SDS011;17710;52.520;13.352;2023-04-06T04:13:02;9.88;;;4.85;;
31043;SDS011;17710;52.520;13.352;2023-04-06T04:15:29;13.30;;;5.28;;
31043;SDS011;17710;52.520;13.352;2023-04-06T04:17:56;8.07;;;4.82;;
31043;SDS011;17710;52.520;13.352;2023-04-06T04:20:22;11.80;;;5.53;;
31043;SDS011;17710;52.520;13.352;2023-04-06T04:22:49;10.82;;;5.60;;
31043;SDS011;17710;52.520;13.352;2023-04-06T04:25:15;12.73;;;5.90;;
31043;SDS011;17710;52.520;13.352;2023-04-06T04:27:41;13.25;;;5.40;;
31043;SDS011;17710;52.520;13.352;2023-04-06T04:30:08;10.20;;;5.63;;
31043;SDS011;17710;52.520;13.352;2023-04-06T04:32:36;12.00;;;5.47;;
31043;SDS011;17710;52.520;13.352;2023-04-06T04:35:03;11.43;;;5.93;;
31043;SDS011;17710;52.520;13.352;2023-04-06T04:37:29;11.57;;;6.28;;
31043;SDS011;17710;52.520;13.352;2023-04-06T04:39:56;9.00;;;5.50;;
31043;SDS011;17710;52.520;13.352;2023-04-06T04:42:22;12.25;;;5.82;;
31043;SDS011;17710;52.520;13.352;2023-04-06T04:44:49;11.40;;;5.75;;
31043;SDS011;17710;52.520;13.352;2023-04-06T04:47:15;9.63;;;5.70;;
31043;SDS011;17710;52.520;13.352;2023-04-06T04:49:43;12.70;;;5.80;;
31043;SDS011;17710;52.520;13.352;2023-04-06T04:52:09;11.80;;;5.80;;
31043;SDS011;17710;52.520;13.352;2023-04-06T04:54:35;8.07;;;5.68;;
31043;SDS011;17710;52.520;13.352;2023-04-06T04:57:02;14.25;;;6.05;;
31043;SDS011;17710;52.520;13.352;2023-04-06T04:59:29;12.13;;;6.00;;
31043;SDS011;17710;52.520;13.352;2023-04-06T05:01:55;14.57;;;6.53;;
31043;SDS011;17710;52.520;13.352;2023-04-06T05:04:22;14.88;;;6.65;;
31043;SDS011;17710;52.520;13.352;2023-04-06T05:06:50;13.20;;;5.95;;
31043;SDS011;17710;52.520;13.352;2023-04-06T05:09:16;9.20;;;6.25;;
31043;SDS011;17710;52.520;13.352;2023-04-06T05:11:43;12.05;;;6.68;;
31043;SDS011;17710;52.520;13.352;2023-04-06T05:14:09;14.30;;;6.18;;
31043;SDS011;17710;52.520;13.352;2023-04-06T05:16:36;15.35;;;6.47;;
31043;SDS011;17710;52.520;13.352;2023-04-06T05:19:02;14.85;;;7.20;;
31043;SDS011;17710;52.520;13.352;2023-04-06T05:23:56;16.45;;;6.72;;
31043;SDS011;17710;52.520;13.352;2023-04-06T05:26:23;12.68;;;7.10;;
31043;SDS011;17710;52.520;13.352;2023-04-06T05:28:50;12.63;;;7.15;;
31043;SDS011;17710;52.520;13.352;2023-04-06T05:31:17;15.90;;;6.45;;
31043;SDS011;17710;52.520;13.352;2023-04-06T05:33:43;14.88;;;7.75;;
31043;SDS011;17710;52.520;13.352;2023-04-06T05:36:09;11.23;;;7.45;;
31043;SDS011;17710;52.520;13.352;2023-04-06T05:38:36;10.85;;;6.53;;
31043;SDS011;17710;52.520;13.352;2023-04-06T05:41:04;17.60;;;7.30;;
31043;SDS011;17710;52.520;13.352;2023-04-06T05:43:33;13.18;;;7.82;;
31043;SDS011;17710;52.520;13.352;2023-04-06T05:46:00;13.57;;;6.57;;
31043;SDS011;17710;52.520;13.352;2023-04-06T05:48:26;13.23;;;7.50;;
31043;SDS011;17710;52.520;13.352;2023-04-06T05:50:53;13.35;;;6.78;;
31043;SDS011;17710;52.520;13.352;2023-04-06T05:53:20;13.70;;;7.25;;
31043;SDS011;17710;52.520;13.352;2023-04-06T05:55:47;13.70;;;7.18;;
31043;SDS011;17710;52.520;13.352;2023-04-06T05:58:15;13.57;;;6.78;;
31043;SDS011;17710;52.520;13.352;2023-04-06T06:00:42;13.57;;;7.10;;
31043;SDS011;17710;52.520;13.352;2023-04-06T06:03:12;14.20;;;6.72;;
31043;SDS011;17710;52.520;13.352;2023-04-06T06:05:40;19.63;;;7.07;;
31043;SDS011;17710;52.520;13.352;2023-04-06T06:08:06;13.20;;;7.43;;
31043;SDS011;17710;52.520;13.352;2023-04-06T06:10:33;13.43;;;6.93;;
31043;SDS011;17710;52.520;13.352;2023-04-06T06:13:00;10.70;;;6.40;;
31043;SDS011;17710;52.520;13.352;2023-04-06T06:15:27;18.05;;;7.88;;
31043;SDS011;17710;52.520;13.352;2023-04-06T06:17:54;15.75;;;6.53;;
31043;SDS011;17710;52.520;13.352;2023-04-06T06:20:21;12.38;;;6.60;;
31043;SDS011;17710;52.520;13.352;2023-04-06T06:22:48;14.00;;;5.90;;
31043;SDS011;17710;52.520;13.352;2023-04-06T06:25:17;15.38;;;6.38;;
31043;SDS011;17710;52.520;13.352;2023-04-06T06:27:43;14.05;;;6.03;;
31043;SDS011;17710;52.520;13.352;2023-04-06T06:30:10;22.25;;;7.00;;
31043;SDS011;17710;52.520;13.352;2023-04-06T06:32:38;13.10;;;6.32;;
31043;SDS011;17710;52.520;13.352;2023-04-06T06:35:05;12.82;;;6.50;;
31043;SDS011;17710;52.520;13.352;2023-04-06T06:37:32;14.68;;;6.75;;
31043;SDS011;17710;52.520;13.352;2023-04-06T06:40:01;13.98;;;6.45;;
31043;SDS011;17710;52.520;13.352;2023-04-06T06:42:29;11.68;;;6.72;;
31043;SDS011;17710;52.520;13.352;2023-04-06T06:44:56;12.13;;;6.70;;
31043;SDS011;17710;52.520;13.352;2023-04-06T06:47:22;13.70;;;6.00;;
31043;SDS011;17710;52.520;13.352;2023-04-06T06:49:51;15.63;;;5.30;;
31043;SDS011;17710;52.520;13.352;2023-04-06T06:52:18;15.57;;;6.43;;
31043;SDS011;17710;52.520;13.352;2023-04-06T06:54:45;9.15;;;5.95;;
31043;SDS011;17710;52.520;13.352;2023-04-06T06:57:11;10.18;;;5.35;;
31043;SDS011;17710;52.520;13.352;2023-04-06T06:59:38;9.73;;;5.13;;
31043;SDS011;17710;52.520;13.352;2023-04-06T07:02:04;11.18;;;5.43;;
31043;SDS011;17710;52.520;13.352;2023-04-06T07:04:31;10.32;;;5.47;;
31043;SDS011;17710;52.520;13.352;2023-04-06T07:06:59;11.48;;;5.55;;
31043;SDS011;17710;52.520;13.352;2023-04-06T07:09:26;13.23;;;5.88;;
31043;SDS011;17710;52.520;13.352;2023-04-06T07:11:52;9.43;;;5.47;;
31043;SDS011;17710;52.520;13.352;2023-04-06T07:14:19;9.45;;;4.57;;
31043;SDS011;17710;52.520;13.352;2023-04-06T07:16:45;12.38;;;5.15;;
31043;SDS011;17710;52.520;13.352;2023-04-06T07:19:13;8.80;;;4.78;;
31043;SDS011;17710;52.520;13.352;2023-04-06T07:21:40;12.77;;;5.28;;
31043;SDS011;17710;52.520;13.352;2023-04-06T07:24:07;10.60;;;4.95;;
31043;SDS011;17710;52.520;13.352;2023-04-06T07:26:34;9.60;;;5.18;;
31043;SDS011;17710;52.520;13.352;2023-04-06T07:29:00;10.52;;;5.20;;
31043;SDS011;17710;52.520;13.352;2023-04-06T07:31:27;9.05;;;4.18;;
31043;SDS011;17710;52.520;13.352;2023-04-06T07:33:53;10.80;;;4.65;;
31043;SDS011;17710;52.520;13.352;2023-04-06T07:36:20;7.45;;;4.50;;
31043;SDS011;17710;52.520;13.352;2023-04-06T07:38:46;9.63;;;4.70;;
31043;SDS011;17710;52.520;13.352;2023-04-06T07:41:15;7.18;;;4.70;;
31043;SDS011;17710;52.520;13.352;2023-04-06T07:43:41;5.80;;;3.97;;
31043;SDS011;17710;52.520;13.352;2023-04-06T07:46:08;8.32;;;4.03;;
31043;SDS011;17710;52.520;13.352;2023-04-06T07:48:34;7.68;;;3.67;;
31043;SDS011;17710;52.520;13.352;2023-04-06T07:51:02;8.75;;;4.25;;
31043;SDS011;17710;52.520;13.352;2023-04-06T07:53:31;8.43;;;4.80;;
31043;SDS011;17710;52.520;13.352;2023-04-06T07:55:57;11.40;;;4.40;;
31043;SDS011;17710;52.520;13.352;2023-04-06T07:58:25;12.52;;;4.35;;
31043;SDS011;17710;52.520;13.352;2023-04-06T08:00:52;11.93;;;4.68;;
31043;SDS011;17710;52.520;13.352;2023-04-06T08:03:19;9.93;;;4.90;;
31043;SDS011;17710;52.520;13.352;2023-04-06T08:05:50;7.88;;;3.80;;
31043;SDS011;17710;52.520;13.352;2023-04-06T08:08:16;7.78;;;3.28;;
31043;SDS011;17710;52.520;13.352;2023-04-06T08:10:43;6.70;;;3.40;;
31043;SDS011;17710;52.520;13.352;2023-04-06T08:13:09;8.10;;;3.20;;
31043;SDS011;17710;52.520;13.352;2023-04-06T08:15:37;5.70;;;3.42;;
31043;SDS011;17710;52.520;13.352;2023-04-06T08:18:04;8.68;;;3.70;;
31043;SDS011;17710;52.520;13.352;2023-04-06T08:20:30;6.57;;;3.20;;
31043;SDS011;17710;52.520;13.352;2023-04-06T08:22:57;7.38;;;3.50;;
31043;SDS011;17710;52.520;13.352;2023-04-06T08:25:23;7.40;;;3.13;;
31043;SDS011;17710;52.520;13.352;2023-04-06T08:27:50;4.82;;;3.05;;
31043;SDS011;17710;52.520;13.352;2023-04-06T08:30:16;7.43;;;2.80;;
31043;SDS011;17710;52.520;13.352;2023-04-06T08:32:45;8.05;;;2.92;;
31043;SDS011;17710;52.520;13.352;2023-04-06T08:35:12;7.22;;;2.60;;
31043;SDS011;17710;52.520;13.352;2023-04-06T08:37:39;7.82;;;2.60;;
31043;SDS011;17710;52.520;13.352;2023-04-06T08:40:06;6.47;;;2.70;;
31043;SDS011;17710;52.520;13.352;2023-04-06T08:42:33;5.53;;;2.80;;
31043;SDS011;17710;52.520;13.352;2023-04-06T08:45:06;4.35;;;2.85;;
31043;SDS011;17710;52.520;13.352;2023-04-06T08:47:34;5.13;;;2.50;;
31043;SDS011;17710;52.520;13.352;2023-04-06T08:50:05;5.30;;;2.60;;
31043;SDS011;17710;52.520;13.352;2023-04-06T08:52:37;5.85;;;2.70;;
31043;SDS011;17710;52.520;13.352;2023-04-06T08:55:05;2.85;;;1.90;;
31043;SDS011;17710;52.520;13.352;2023-04-06T08:57:32;6.60;;;2.67;;
31043;SDS011;17710;52.520;13.352;2023-04-06T09:00:02;3.70;;;2.80;;
31043;SDS011;17710;52.520;13.352;2023-04-06T09:02:28;7.05;;;2.40;;
31043;SDS011;17710;52.520;13.352;2023-04-06T09:04:55;3.47;;;2.03;;
31043;SDS011;17710;52.520;13.352;2023-04-06T09:07:24;3.65;;;1.80;;
31043;SDS011;17710;52.520;13.352;2023-04-06T09:09:51;5.72;;;1.77;;
31043;SDS011;17710;52.520;13.352;2023-04-06T09:12:24;4.05;;;2.00;;
31043;SDS011;17710;52.520;13.352;2023-04-06T09:14:51;4.40;;;1.65;;
31043;SDS011;17710;52.520;13.352;2023-04-06T09:17:21;4.13;;;2.13;;
31043;SDS011;17710;52.520;13.352;2023-04-06T09:19:47;5.22;;;2.20;;
31043;SDS011;17710;52.520;13.352;2023-04-06T09:22:14;3.10;;;1.75;;
31043;SDS011;17710;52.520;13.352;2023-04-06T09:24:43;4.65;;;1.92;;
31043;SDS011;17710;52.520;13.352;2023-04-06T09:27:10;2.92;;;1.83;;
31043;SDS011;17710;52.520;13.352;2023-04-06T09:29:37;2.72;;;1.50;;
31043;SDS011;17710;52.520;13.352;2023-04-06T09:32:04;3.28;;;1.45;;
31043;SDS011;17710;52.520;13.352;2023-04-06T09:34:31;4.28;;;1.50;;
31043;SDS011;17710;52.520;13.352;2023-04-06T09:36:57;5.15;;;1.65;;
31043;SDS011;17710;52.520;13.352;2023-04-06T09:39:24;3.00;;;2.05;;
31043;SDS011;17710;52.520;13.352;2023-04-06T09:41:53;3.10;;;1.50;;
31043;SDS011;17710;52.520;13.352;2023-04-06T09:44:21;3.25;;;1.40;;
31043;SDS011;17710;52.520;13.352;2023-04-06T09:46:49;2.50;;;1.67;;
31043;SDS011;17710;52.520;13.352;2023-04-06T09:49:17;6.97;;;1.60;;
31043;SDS011;17710;52.520;13.352;2023-04-06T09:51:45;1.98;;;1.17;;
31043;SDS011;17710;52.520;13.352;2023-04-06T09:54:15;3.50;;;1.60;;
31043;SDS011;17710;52.520;13.352;2023-04-06T09:56:47;2.58;;;1.77;;
31043;SDS011;17710;52.520;13.352;2023-04-06T09:59:18;2.92;;;1.40;;
31043;SDS011;17710;52.520;13.352;2023-04-06T10:01:50;5.40;;;1.58;;
31043;SDS011;17710;52.520;13.352;2023-04-06T10:04:21;3.58;;;1.90;;
31043;SDS011;17710;52.520;13.352;2023-04-06T10:06:54;3.80;;;1.65;;
31043;SDS011;17710;52.520;13.352;2023-04-06T10:09:24;4.20;;;1.88;;
31043;SDS011;17710;52.520;13.352;2023-04-06T10:11:54;4.28;;;1.60;;
31043;SDS011;17710;52.520;13.352;2023-04-06T10:14:22;2.15;;;1.38;;
31043;SDS011;17710;52.520;13.352;2023-04-06T10:16:49;2.40;;;1.30;;
31043;SDS011;17710;52.520;13.352;2023-04-06T10:19:17;3.03;;;1.50;;
31043;SDS011;17710;52.520;13.352;2023-04-06T10:21:48;5.60;;;1.63;;
31043;SDS011;17710;52.520;13.352;2023-04-06T10:24:17;1.67;;;1.30;;
31043;SDS011;17710;52.520;13.352;2023-04-06T10:26:43;1.52;;;1.42;;
31043;SDS011;17710;52.520;13.352;2023-04-06T10:29:24;3.47;;;1.42;;
31043;SDS011;17710;52.520;13.352;2023-04-06T10:31:50;2.90;;;1.17;;
31043;SDS011;17710;52.520;13.352;2023-04-06T10:34:17;2.75;;;1.40;;
31043;SDS011;17710;52.520;13.352;2023-04-06T10:36:43;2.13;;;1.50;;
31043;SDS011;17710;52.520;13.352;2023-04-06T10:39:09;5.53;;;1.63;;
31043;SDS011;17710;52.520;13.352;2023-04-06T10:41:36;1.90;;;1.52;;
31043;SDS011;17710;52.520;13.352;2023-04-06T10:44:07;2.53;;;1.73;;
31043;SDS011;17710;52.520;13.352;2023-04-06T10:46:35;5.93;;;1.83;;
31043;SDS011;17710;52.520;13.352;2023-04-06T10:49:09;2.03;;;1.80;;
31043;SDS011;17710;52.520;13.352;2023-04-06T10:51:37;2.95;;;1.60;;
31043;SDS011;17710;52.520;13.352;2023-04-06T10:54:05;2.63;;;1.60;;
31043;SDS011;17710;52.520;13.352;2023-04-06T10:56:32;2.97;;;1.70;;
31043;SDS011;17710;52.520;13.352;2023-04-06T10:59:03;3.28;;;1.55;;
31043;SDS011;17710;52.520;13.352;2023-04-06T11:01:31;1.80;;;1.70;;
31043;SDS011;17710;52.520;13.352;2023-04-06T11:03:59;2.60;;;1.60;;
31043;SDS011;17710;52.520;13.352;2023-04-06T11:06:26;2.90;;;1.52;;
31043;SDS011;17710;52.520;13.352;2023-04-06T11:08:56;3.15;;;1.83;;
31043;SDS011;17710;52.520;13.352;2023-04-06T11:11:23;3.25;;;1.52;;
31043;SDS011;17710;52.520;13.352;2023-04-06T11:13:52;2.50;;;1.40;;
31043;SDS011;17710;52.520;13.352;2023-04-06T11:16:20;2.53;;;1.83;;
31043;SDS011;17710;52.520;13.352;2023-04-06T11:18:48;3.45;;;1.80;;
31043;SDS011;17710;52.520;13.352;2023-04-06T11:21:18;2.28;;;1.60;;
31043;SDS011;17710;52.520;13.352;2023-04-06T11:23:45;2.35;;;1.23;;
31043;SDS011;17710;52.520;13.352;2023-04-06T11:26:12;4.63;;;1.70;;
31043;SDS011;17710;52.520;13.352;2023-04-06T11:28:39;2.83;;;1.80;;
31043;SDS011;17710;52.520;13.352;2023-04-06T11:31:06;4.38;;;1.55;;
31043;SDS011;17710;52.520;13.352;2023-04-06T11:33:36;2.63;;;1.50;;
31043;SDS011;17710;52.520;13.352;2023-04-06T11:36:03;3.85;;;2.03;;
31043;SDS011;17710;52.520;13.352;2023-04-06T11:38:32;3.78;;;1.60;;
31043;SDS011;17710;52.520;13.352;2023-04-06T11:41:00;3.67;;;1.70;;
31043;SDS011;17710;52.520;13.352;2023-04-06T11:43:27;4.07;;;1.60;;
31043;SDS011;17710;52.520;13.352;2023-04-06T11:45:59;3.10;;;1.80;;
31043;SDS011;17710;52.520;13.352;2023-04-06T11:48:27;3.65;;;1.65;;
31043;SDS011;17710;52.520;13.352;2023-04-06T11:50:55;2.67;;;1.67;;
31043;SDS011;17710;52.520;13.352;2023-04-06T11:53:22;2.35;;;1.67;;
31043;SDS011;17710;52.520;13.352;2023-04-06T11:55:50;3.25;;;1.70;;
31043;SDS011;17710;52.520;13.352;2023-04-06T11:58:16;3.40;;;1.90;;
31043;SDS011;17710;52.520;13.352;2023-04-06T12:00:43;2.50;;;1.38;;
31043;SDS011;17710;52.520;13.352;2023-04-06T12:03:10;2.58;;;1.60;;
31043;SDS011;17710;52.520;13.352;2023-04-06T12:05:37;3.15;;;1.50;;
31043;SDS011;17710;52.520;13.352;2023-04-06T12:08:03;4.32;;;1.70;;
31043;SDS011;17710;52.520;13.352;2023-04-06T12:10:30;2.88;;;2.20;;
31043;SDS011;17710;52.520;13.352;2023-04-06T12:12:57;1.75;;;1.50;;
31043;SDS011;17710;52.520;13.352;2023-04-06T12:15:24;3.15;;;1.80;;
31043;SDS011;17710;52.520;13.352;2023-04-06T12:17:50;3.50;;;1.75;;
31043;SDS011;17710;52.520;13.352;2023-04-06T12:20:17;2.40;;;1.50;;
31043;SDS011;17710;52.520;13.352;2023-04-06T12:22:43;2.70;;;1.88;;
31043;SDS011;17710;52.520;13.352;2023-04-06T12:25:10;3.03;;;1.92;;
31043;SDS011;17710;52.520;13.352;2023-04-06T12:27:36;2.35;;;1.73;;
31043;SDS011;17710;52.520;13.352;2023-04-06T12:30:05;2.45;;;1.75;;
31043;SDS011;17710;52.520;13.352;2023-04-06T12:32:33;3.40;;;1.80;;
31043;SDS011;17710;52.520;13.352;2023-04-06T12:34:59;3.20;;;1.65;;
31043;SDS011;17710;52.520;13.352;2023-04-06T12:37:26;3.25;;;1.85;;
31043;SDS011;17710;52.520;13.352;2023-04-06T12:39:53;2.17;;;1.67;;
31043;SDS011;17710;52.520;13.352;2023-04-06T12:42:19;2.58;;;1.70;;
31043;SDS011;17710;52.520;13.352;2023-04-06T12:44:45;3.08;;;2.00;;
31043;SDS011;17710;52.520;13.352;2023-04-06T12:47:13;4.00;;;2.05;;
31043;SDS011;17710;52.520;13.352;2023-04-06T12:49:40;4.22;;;1.73;;
31043;SDS011;17710;52.520;13.352;2023-04-06T12:52:06;2.80;;;1.95;;
31043;SDS011;17710;52.520;13.352;2023-04-06T12:54:32;2.75;;;1.83;;
31043;SDS011;17710;52.520;13.352;2023-04-06T12:56:59;2.95;;;2.03;;
31043;SDS011;17710;52.520;13.352;2023-04-06T12:59:26;3.28;;;2.50;;
31043;SDS011;17710;52.520;13.352;2023-04-06T13:01:59;3.15;;;2.17;;
31043;SDS011;17710;52.520;13.352;2023-04-06T13:04:27;4.65;;;2.30;;
31043;SDS011;17710;52.520;13.352;2023-04-06T13:06:53;2.97;;;2.00;;
31043;SDS011;17710;52.520;13.352;2023-04-06T13:09:19;6.07;;;2.38;;
31043;SDS011;17710;52.520;13.352;2023-04-06T13:11:46;5.50;;;2.05;;
31043;SDS011;17710;52.520;13.352;2023-04-06T13:14:12;3.33;;;2.00;;
31043;SDS011;17710;52.520;13.352;2023-04-06T13:16:39;3.00;;;2.03;;
31043;SDS011;17710;52.520;13.352;2023-04-06T13:19:05;3.33;;;2.28;;
31043;SDS011;17710;52.520;13.352;2023-04-06T13:21:33;4.40;;;2.25;;
31043;SDS011;17710;52.520;13.352;2023-04-06T13:24:02;3.80;;;2.20;;
31043;SDS011;17710;52.520;13.352;2023-04-06T13:26:29;3.40;;;2.10;;
31043;SDS011;17710;52.520;13.352;2023-04-06T13:28:56;3.35;;;2.00;;
31043;SDS011;17710;52.520;13.352;2023-04-06T13:31:22;4.82;;;2.38;;
31043;SDS011;17710;52.520;13.352;2023-04-06T13:33:49;4.68;;;1.98;;
31043;SDS011;17710;52.520;13.352;2023-04-06T13:36:16;3.47;;;1.98;;
31043;SDS011;17710;52.520;13.352;2023-04-06T13:38:43;5.82;;;2.20;;
31043;SDS011;17710;52.520;13.352;2023-04-06T13:41:10;5.78;;;2.40;;
31043;SDS011;17710;52.520;13.352;2023-04-06T13:43:43;4.25;;;2.60;;
31043;SDS011;17710;52.520;13.352;2023-04-06T13:46:09;4.43;;;2.55;;
31043;SDS011;17710;52.520;13.352;2023-04-06T13:48:36;2.80;;;2.30;;
31043;SDS011;17710;52.520;13.352;2023-04-06T13:51:09;3.80;;;2.22;;
31043;SDS011;17710;52.520;13.352;2023-04-06T13:53:37;5.82;;;2.35;;
31043;SDS011;17710;52.520;13.352;2023-04-06T13:56:05;4.63;;;2.38;;
31043;SDS011;17710;52.520;13.352;2023-04-06T13:58:32;3.72;;;2.22;;
31043;SDS011;17710;52.520;13.352;2023-04-06T14:01:04;2.28;;;1.92;;
31043;SDS011;17710;52.520;13.352;2023-04-06T14:03:31;4.10;;;2.53;;
31043;SDS011;17710;52.520;13.352;2023-04-06T14:05:58;5.72;;;2.13;;
31043;SDS011;17710;52.520;13.352;2023-04-06T14:08:24;3.53;;;1.92;;
31043;SDS011;17710;52.520;13.352;2023-04-06T14:10:51;2.95;;;2.55;;
31043;SDS011;17710;52.520;13.352;2023-04-06T14:13:20;2.92;;;2.10;;
31043;SDS011;17710;52.520;13.352;2023-04-06T14:15:47;5.63;;;2.15;;
31043;SDS011;17710;52.520;13.352;2023-04-06T14:18:19;7.32;;;2.72;;
31043;SDS011;17710;52.520;13.352;2023-04-06T14:20:46;4.45;;;2.40;;
31043;SDS011;17710;52.520;13.352;2023-04-06T14:23:19;5.55;;;2.15;;
31043;SDS011;17710;52.520;13.352;2023-04-06T14:25:46;3.45;;;2.20;;
31043;SDS011;17710;52.520;13.352;2023-04-06T14:28:13;4.65;;;1.90;;
31043;SDS011;17710;52.520;13.352;2023-04-06T14:30:41;3.88;;;2.00;;
31043;SDS011;17710;52.520;13.352;2023-04-06T14:33:07;3.60;;;2.03;;